sensor_id;sensor_type;location;lat;lon;timestamp;P1;P2;P0
54305;PMS7003;50434;45.188;5.712;2022-08-21T00:01:51;1.00;1.00;1.00
54305;PMS7003;50434;45.188;5.712;2022-08-21T00:04:17;0.60;0.60;0.20
54305;PMS7003;50434;45.188;5.712;2022-08-21T00:06:43;0.25;0.25;0.25
54305;PMS7003;50434;45.188;5.712;2022-08-21T00:09:08;1.00;1.00;1.00
54305;PMS7003;50434;45.188;5.712;2022-08-21T00:11:35;0.00;0.00;0.00
54305;PMS7003;50434;45.188;5.712;2022-08-21T00:14:02;0.80;0.80;0.80
54305;PMS7003;50434;45.188;5.712;2022-08-21T00:16:29;0.40;0.40;0.40
54305;PMS7003;50434;45.188;5.712;2022-08-21T00:18:55;0.00;0.00;0.00
54305;PMS7003;50434;45.188;5.712;2022-08-21T00:21:24;0.80;0.80;0.60
54305;PMS7003;50434;45.188;5.712;2022-08-21T00:23:50;0.00;0.00;0.00
54305;PMS7003;50434;45.188;5.712;2022-08-21T00:26:17;0.00;0.00;0.00
54305;PMS7003;50434;45.188;5.712;2022-08-21T00:28:42;1.80;1.80;1.40
54305;PMS7003;50434;45.188;5.712;2022-08-21T00:31:10;0.20;0.20;0.20
54305;PMS7003;50434;45.188;5.712;2022-08-21T00:33:36;0.75;0.75;0.25
54305;PMS7003;50434;45.188;5.712;2022-08-21T00:36:01;1.00;1.00;1.00
54305;PMS7003;50434;45.188;5.712;2022-08-21T00:38:28;0.80;0.80;0.60
54305;PMS7003;50434;45.188;5.712;2022-08-21T00:40:58;0.50;0.50;0.50
54305;PMS7003;50434;45.188;5.712;2022-08-21T00:43:26;0.80;0.80;0.80
54305;PMS7003;50434;45.188;5.712;2022-08-21T00:45:55;0.80;0.80;0.80
54305;PMS7003;50434;45.188;5.712;2022-08-21T00:48:22;1.00;1.00;1.00
54305;PMS7003;50434;45.188;5.712;2022-08-21T00:53:35;0.00;0.00;0.00
54305;PMS7003;50434;45.188;5.712;2022-08-21T00:56:04;0.40;0.40;0.00
54305;PMS7003;50434;45.188;5.712;2022-08-21T00:58:32;0.80;0.80;0.80
54305;PMS7003;50434;45.188;5.712;2022-08-21T01:01:01;0.00;0.00;0.00
54305;PMS7003;50434;45.188;5.712;2022-08-21T01:03:27;0.50;0.50;0.00
54305;PMS7003;50434;45.188;5.712;2022-08-21T01:05:55;0.00;0.00;0.00
54305;PMS7003;50434;45.188;5.712;2022-08-21T01:08:21;0.75;0.75;0.50
54305;PMS7003;50434;45.188;5.712;2022-08-21T01:10:52;0.00;0.00;0.00
54305;PMS7003;50434;45.188;5.712;2022-08-21T01:13:18;0.40;0.40;0.00
54305;PMS7003;50434;45.188;5.712;2022-08-21T01:15:48;0.00;0.00;0.00
54305;PMS7003;50434;45.188;5.712;2022-08-21T01:18:17;1.60;1.60;1.60
54305;PMS7003;50434;45.188;5.712;2022-08-21T01:23:35;0.50;0.50;0.00
54305;PMS7003;50434;45.188;5.712;2022-08-21T01:26:03;0.20;0.20;0.00
54305;PMS7003;50434;45.188;5.712;2022-08-21T01:28:30;0.75;0.75;0.75
54305;PMS7003;50434;45.188;5.712;2022-08-21T01:30:59;2.50;2.50;1.75
54305;PMS7003;50434;45.188;5.712;2022-08-21T01:33:27;2.00;2.00;1.75
54305;PMS7003;50434;45.188;5.712;2022-08-21T01:35:53;1.33;1.33;1.33
54305;PMS7003;50434;45.188;5.712;2022-08-21T01:38:18;3.00;3.00;2.00
54305;PMS7003;50434;45.188;5.712;2022-08-21T01:40:44;2.00;2.00;2.00
54305;PMS7003;50434;45.188;5.712;2022-08-21T01:43:09;2.67;2.67;2.67
54305;PMS7003;50434;45.188;5.712;2022-08-21T01:45:34;2.00;2.00;2.00
54305;PMS7003;50434;45.188;5.712;2022-08-21T01:48:00;2.00;2.00;1.00
54305;PMS7003;50434;45.188;5.712;2022-08-21T01:50:27;2.00;2.00;1.60
54305;PMS7003;50434;45.188;5.712;2022-08-21T01:52:52;2.33;2.33;2.00
54305;PMS7003;50434;45.188;5.712;2022-08-21T01:55:18;2.50;2.50;2.00
54305;PMS7003;50434;45.188;5.712;2022-08-21T01:57:45;1.80;1.80;1.80
54305;PMS7003;50434;45.188;5.712;2022-08-21T02:00:11;0.80;0.80;0.80
54305;PMS7003;50434;45.188;5.712;2022-08-21T02:02:40;1.40;1.40;1.20
54305;PMS7003;50434;45.188;5.712;2022-08-21T02:05:06;1.80;1.80;1.80
54305;PMS7003;50434;45.188;5.712;2022-08-21T02:07:37;2.00;2.00;2.00
54305;PMS7003;50434;45.188;5.712;2022-08-21T02:10:04;1.60;1.60;1.20
54305;PMS7003;50434;45.188;5.712;2022-08-21T02:12:31;0.80;0.80;0.80
54305;PMS7003;50434;45.188;5.712;2022-08-21T02:14:57;1.00;1.00;1.00
54305;PMS7003;50434;45.188;5.712;2022-08-21T02:17:22;0.00;0.00;0.00
54305;PMS7003;50434;45.188;5.712;2022-08-21T02:19:48;1.00;1.00;1.00
54305;PMS7003;50434;45.188;5.712;2022-08-21T02:22:13;1.00;1.00;1.00
54305;PMS7003;50434;45.188;5.712;2022-08-21T02:24:39;1.00;1.00;1.00
54305;PMS7003;50434;45.188;5.712;2022-08-21T02:27:04;1.00;1.00;1.00
54305;PMS7003;50434;45.188;5.712;2022-08-21T02:29:29;1.00;1.00;1.00
54305;PMS7003;50434;45.188;5.712;2022-08-21T02:31:55;1.00;1.00;1.00
54305;PMS7003;50434;45.188;5.712;2022-08-21T02:34:20;1.00;1.00;1.00
54305;PMS7003;50434;45.188;5.712;2022-08-21T02:36:46;0.67;0.67;0.00
54305;PMS7003;50434;45.188;5.712;2022-08-21T02:39:11;1.00;1.00;0.00
54305;PMS7003;50434;45.188;5.712;2022-08-21T02:41:37;0.33;0.33;0.33
54305;PMS7003;50434;45.188;5.712;2022-08-21T02:44:02;1.00;1.00;1.00
54305;PMS7003;50434;45.188;5.712;2022-08-21T02:46:28;0.00;0.00;0.00
54305;PMS7003;50434;45.188;5.712;2022-08-21T02:48:53;0.67;0.67;0.33
54305;PMS7003;50434;45.188;5.712;2022-08-21T02:51:19;0.00;0.00;0.00
54305;PMS7003;50434;45.188;5.712;2022-08-21T02:53:45;0.75;0.75;0.75
54305;PMS7003;50434;45.188;5.712;2022-08-21T02:56:13;1.00;1.00;0.25
54305;PMS7003;50434;45.188;5.712;2022-08-21T02:58:42;0.25;0.25;0.25
54305;PMS7003;50434;45.188;5.712;2022-08-21T03:01:11;0.75;0.75;0.75
54305;PMS7003;50434;45.188;5.712;2022-08-21T03:03:38;0.75;0.75;0.75
54305;PMS7003;50434;45.188;5.712;2022-08-21T03:06:06;0.75;0.75;0.75
54305;PMS7003;50434;45.188;5.712;2022-08-21T03:08:33;0.75;0.75;0.75
54305;PMS7003;50434;45.188;5.712;2022-08-21T03:10:59;0.75;0.75;0.75
54305;PMS7003;50434;45.188;5.712;2022-08-21T03:13:24;1.00;1.00;1.00
54305;PMS7003;50434;45.188;5.712;2022-08-21T03:15:50;1.00;1.00;1.00
54305;PMS7003;50434;45.188;5.712;2022-08-21T03:18:15;1.67;1.67;1.33
54305;PMS7003;50434;45.188;5.712;2022-08-21T03:20:42;1.50;1.50;1.25
54305;PMS7003;50434;45.188;5.712;2022-08-21T03:23:08;0.75;0.75;0.75
54305;PMS7003;50434;45.188;5.712;2022-08-21T03:25:34;1.75;1.75;0.75
54305;PMS7003;50434;45.188;5.712;2022-08-21T03:28:00;1.00;1.00;1.00
54305;PMS7003;50434;45.188;5.712;2022-08-21T03:30:27;1.25;1.25;1.00
54305;PMS7003;50434;45.188;5.712;2022-08-21T03:32:56;1.50;1.50;0.75
54305;PMS7003;50434;45.188;5.712;2022-08-21T03:35:22;1.25;1.25;1.25
54305;PMS7003;50434;45.188;5.712;2022-08-21T03:37:48;1.00;1.00;1.00
54305;PMS7003;50434;45.188;5.712;2022-08-21T03:40:14;2.00;2.00;2.00
54305;PMS7003;50434;45.188;5.712;2022-08-21T03:42:41;0.75;0.75;0.75
54305;PMS7003;50434;45.188;5.712;2022-08-21T03:45:07;2.00;2.00;2.00
54305;PMS7003;50434;45.188;5.712;2022-08-21T03:47:33;2.00;2.00;1.75
54305;PMS7003;50434;45.188;5.712;2022-08-21T03:50:00;1.50;1.50;1.00
54305;PMS7003;50434;45.188;5.712;2022-08-21T03:52:25;1.00;1.00;1.00
54305;PMS7003;50434;45.188;5.712;2022-08-21T03:54:51;1.00;1.00;1.00
54305;PMS7003;50434;45.188;5.712;2022-08-21T03:57:16;2.00;2.00;1.00
54305;PMS7003;50434;45.188;5.712;2022-08-21T03:59:43;1.25;1.25;0.75
54305;PMS7003;50434;45.188;5.712;2022-08-21T04:02:09;2.00;2.00;1.00
54305;PMS7003;50434;45.188;5.712;2022-08-21T04:04:37;1.00;1.00;1.00
54305;PMS7003;50434;45.188;5.712;2022-08-21T04:07:03;1.00;1.00;1.00
54305;PMS7003;50434;45.188;5.712;2022-08-21T04:09:29;2.00;2.00;1.00
54305;PMS7003;50434;45.188;5.712;2022-08-21T04:11:55;1.00;1.00;0.75
54305;PMS7003;50434;45.188;5.712;2022-08-21T04:14:21;1.75;1.75;1.75
54305;PMS7003;50434;45.188;5.712;2022-08-21T04:16:47;1.00;1.00;0.75
54305;PMS7003;50434;45.188;5.712;2022-08-21T04:19:12;2.00;2.00;1.33
54305;PMS7003;50434;45.188;5.712;2022-08-21T04:21:38;2.67;2.67;2.00
54305;PMS7003;50434;45.188;5.712;2022-08-21T04:24:05;1.50;1.50;1.00
54305;PMS7003;50434;45.188;5.712;2022-08-21T04:26:33;2.00;2.00;1.75
54305;PMS7003;50434;45.188;5.712;2022-08-21T04:28:59;1.75;1.75;1.00
54305;PMS7003;50434;45.188;5.712;2022-08-21T04:31:25;2.25;2.25;1.75
54305;PMS7003;50434;45.188;5.712;2022-08-21T04:33:53;1.25;1.25;1.00
54305;PMS7003;50434;45.188;5.712;2022-08-21T04:36:18;3.00;3.00;3.00
54305;PMS7003;50434;45.188;5.712;2022-08-21T04:38:43;2.33;2.33;1.67
54305;PMS7003;50434;45.188;5.712;2022-08-21T04:41:09;3.00;3.00;3.00
54305;PMS7003;50434;45.188;5.712;2022-08-21T04:43:35;1.67;1.67;1.67
54305;PMS7003;50434;45.188;5.712;2022-08-21T04:46:00;2.33;2.33;2.00
54305;PMS7003;50434;45.188;5.712;2022-08-21T04:48:26;2.00;2.00;2.00
54305;PMS7003;50434;45.188;5.712;2022-08-21T04:50:55;2.33;2.33;2.33
54305;PMS7003;50434;45.188;5.712;2022-08-21T04:56:01;1.75;1.75;1.75
54305;PMS7003;50434;45.188;5.712;2022-08-21T04:58:33;1.75;1.75;1.75
54305;PMS7003;50434;45.188;5.712;2022-08-21T05:01:00;2.75;2.75;1.75
54305;PMS7003;50434;45.188;5.712;2022-08-21T05:03:27;2.00;2.00;1.75
54305;PMS7003;50434;45.188;5.712;2022-08-21T05:05:56;1.75;1.75;1.75
54305;PMS7003;50434;45.188;5.712;2022-08-21T05:08:23;1.75;1.75;1.75
54305;PMS7003;50434;45.188;5.712;2022-08-21T05:10:54;2.75;2.75;2.75
54305;PMS7003;50434;45.188;5.712;2022-08-21T05:13:20;1.75;1.75;1.75
54305;PMS7003;50434;45.188;5.712;2022-08-21T05:15:45;2.67;2.67;2.00
54305;PMS7003;50434;45.188;5.712;2022-08-21T05:18:11;2.00;2.00;2.00
54305;PMS7003;50434;45.188;5.712;2022-08-21T05:20:37;2.00;2.00;2.00
54305;PMS7003;50434;45.188;5.712;2022-08-21T05:23:10;3.00;3.00;2.00
54305;PMS7003;50434;45.188;5.712;2022-08-21T05:25:37;0.75;0.75;0.75
54305;PMS7003;50434;45.188;5.712;2022-08-21T05:28:03;2.75;2.75;2.50
54305;PMS7003;50434;45.188;5.712;2022-08-21T05:30:30;2.75;2.75;2.50
54305;PMS7003;50434;45.188;5.712;2022-08-21T05:32:56;3.00;3.00;2.00
54305;PMS7003;50434;45.188;5.712;2022-08-21T05:35:23;1.75;1.75;1.50
54305;PMS7003;50434;45.188;5.712;2022-08-21T05:37:49;3.00;3.00;2.00
54305;PMS7003;50434;45.188;5.712;2022-08-21T05:40:14;2.33;2.33;2.33
54305;PMS7003;50434;45.188;5.712;2022-08-21T05:42:39;3.33;3.33;3.00
54305;PMS7003;50434;45.188;5.712;2022-08-21T05:45:05;2.00;2.00;2.00
54305;PMS7003;50434;45.188;5.712;2022-08-21T05:47:32;2.00;2.00;2.00
54305;PMS7003;50434;45.188;5.712;2022-08-21T05:49:57;2.33;2.33;2.00
54305;PMS7003;50434;45.188;5.712;2022-08-21T05:52:23;2.00;2.00;1.67
54305;PMS7003;50434;45.188;5.712;2022-08-21T05:54:48;2.00;2.00;1.33
54305;PMS7003;50434;45.188;5.712;2022-08-21T05:57:14;2.00;2.00;2.00
54305;PMS7003;50434;45.188;5.712;2022-08-21T05:59:40;2.67;2.67;2.00
54305;PMS7003;50434;45.188;5.712;2022-08-21T06:02:05;2.67;2.67;2.00
54305;PMS7003;50434;45.188;5.712;2022-08-21T06:04:36;1.75;1.75;1.50
54305;PMS7003;50434;45.188;5.712;2022-08-21T06:07:02;2.75;2.75;1.75
54305;PMS7003;50434;45.188;5.712;2022-08-21T06:09:28;3.00;3.00;2.00
54305;PMS7003;50434;45.188;5.712;2022-08-21T06:11:53;3.00;3.00;2.33
54305;PMS7003;50434;45.188;5.712;2022-08-21T06:14:18;1.33;1.33;1.33
54305;PMS7003;50434;45.188;5.712;2022-08-21T06:16:44;3.00;3.00;2.00
54305;PMS7003;50434;45.188;5.712;2022-08-21T06:19:09;2.67;2.67;2.00
54305;PMS7003;50434;45.188;5.712;2022-08-21T06:21:34;2.00;2.00;2.00
54305;PMS7003;50434;45.188;5.712;2022-08-21T06:24:00;1.67;1.67;1.33
54305;PMS7003;50434;45.188;5.712;2022-08-21T06:26:25;3.00;3.00;3.00
54305;PMS7003;50434;45.188;5.712;2022-08-21T06:28:51;3.00;3.00;2.00
54305;PMS7003;50434;45.188;5.712;2022-08-21T06:31:21;5.00;4.00;2.33
54305;PMS7003;50434;45.188;5.712;2022-08-21T06:33:48;1.75;1.75;0.75
54305;PMS7003;50434;45.188;5.712;2022-08-21T06:36:15;2.00;2.00;1.75
54305;PMS7003;50434;45.188;5.712;2022-08-21T06:38:41;2.75;2.75;2.00
54305;PMS7003;50434;45.188;5.712;2022-08-21T06:41:07;2.00;2.00;2.00
54305;PMS7003;50434;45.188;5.712;2022-08-21T06:43:33;4.75;4.75;2.75
54305;PMS7003;50434;45.188;5.712;2022-08-21T06:45:59;2.33;2.33;2.00
54305;PMS7003;50434;45.188;5.712;2022-08-21T06:48:24;2.33;2.33;2.00
54305;PMS7003;50434;45.188;5.712;2022-08-21T06:50:50;2.00;2.00;1.67
54305;PMS7003;50434;45.188;5.712;2022-08-21T06:53:16;1.67;1.67;1.67
54305;PMS7003;50434;45.188;5.712;2022-08-21T06:55:44;1.75;1.75;1.75
54305;PMS7003;50434;45.188;5.712;2022-08-21T06:58:11;2.50;2.50;1.25
54305;PMS7003;50434;45.188;5.712;2022-08-21T07:00:44;2.00;2.00;1.75
54305;PMS7003;50434;45.188;5.712;2022-08-21T07:03:26;1.75;1.75;1.50
54305;PMS7003;50434;45.188;5.712;2022-08-21T07:05:54;2.25;2.25;1.75
54305;PMS7003;50434;45.188;5.712;2022-08-21T07:08:21;1.50;1.50;1.50
54305;PMS7003;50434;45.188;5.712;2022-08-21T07:10:47;3.00;3.00;2.00
54305;PMS7003;50434;45.188;5.712;2022-08-21T07:13:14;2.50;2.50;1.75
54305;PMS7003;50434;45.188;5.712;2022-08-21T07:15:40;3.00;3.00;3.00
54305;PMS7003;50434;45.188;5.712;2022-08-21T07:18:05;3.00;3.00;2.00
54305;PMS7003;50434;45.188;5.712;2022-08-21T07:20:31;3.00;3.00;2.00
54305;PMS7003;50434;45.188;5.712;2022-08-21T07:22:58;3.00;3.00;2.75
54305;PMS7003;50434;45.188;5.712;2022-08-21T07:25:26;1.75;1.75;1.75
54305;PMS7003;50434;45.188;5.712;2022-08-21T07:27:51;2.00;2.00;2.00
54305;PMS7003;50434;45.188;5.712;2022-08-21T07:30:17;2.00;2.00;2.00
54305;PMS7003;50434;45.188;5.712;2022-08-21T07:32:42;4.00;4.00;4.00
54305;PMS7003;50434;45.188;5.712;2022-08-21T07:35:08;2.75;2.75;1.75
54305;PMS7003;50434;45.188;5.712;2022-08-21T07:37:34;2.00;2.00;2.00
54305;PMS7003;50434;45.188;5.712;2022-08-21T07:40:00;2.00;2.00;2.00
54305;PMS7003;50434;45.188;5.712;2022-08-21T07:42:25;2.67;2.67;2.00
54305;PMS7003;50434;45.188;5.712;2022-08-21T07:44:51;5.33;5.33;4.67
54305;PMS7003;50434;45.188;5.712;2022-08-21T07:47:16;4.00;4.00;3.33
54305;PMS7003;50434;45.188;5.712;2022-08-21T07:49:42;3.00;3.00;3.00
54305;PMS7003;50434;45.188;5.712;2022-08-21T07:52:07;2.33;2.33;2.00
54305;PMS7003;50434;45.188;5.712;2022-08-21T07:54:32;2.33;2.33;1.33
54305;PMS7003;50434;45.188;5.712;2022-08-21T07:56:58;1.67;1.67;1.00
54305;PMS7003;50434;45.188;5.712;2022-08-21T07:59:23;2.00;2.00;2.00
54305;PMS7003;50434;45.188;5.712;2022-08-21T08:01:49;2.67;2.67;2.33
54305;PMS7003;50434;45.188;5.712;2022-08-21T08:04:14;2.67;2.67;2.67
54305;PMS7003;50434;45.188;5.712;2022-08-21T08:06:41;2.25;2.25;2.25
54305;PMS7003;50434;45.188;5.712;2022-08-21T08:09:06;1.33;1.33;1.00
54305;PMS7003;50434;45.188;5.712;2022-08-21T08:11:32;2.00;2.00;1.75
54305;PMS7003;50434;45.188;5.712;2022-08-21T08:13:58;2.67;2.67;2.33
54305;PMS7003;50434;45.188;5.712;2022-08-21T08:16:24;1.75;1.75;1.75
54305;PMS7003;50434;45.188;5.712;2022-08-21T08:18:51;1.75;1.75;1.75
54305;PMS7003;50434;45.188;5.712;2022-08-21T08:21:16;2.00;2.00;1.00
54305;PMS7003;50434;45.188;5.712;2022-08-21T08:23:43;5.75;4.75;4.00
54305;PMS7003;50434;45.188;5.712;2022-08-21T08:26:10;2.75;2.75;1.75
54305;PMS7003;50434;45.188;5.712;2022-08-21T08:28:35;2.00;2.00;2.00
54305;PMS7003;50434;45.188;5.712;2022-08-21T08:31:01;3.00;3.00;3.00
54305;PMS7003;50434;45.188;5.712;2022-08-21T08:33:27;2.25;2.25;1.50
54305;PMS7003;50434;45.188;5.712;2022-08-21T08:35:52;3.67;3.67;3.00
54305;PMS7003;50434;45.188;5.712;2022-08-21T08:38:19;5.00;5.00;4.33
54305;PMS7003;50434;45.188;5.712;2022-08-21T08:43:32;3.00;3.00;2.75
54305;PMS7003;50434;45.188;5.712;2022-08-21T08:45:59;4.00;4.00;3.00
54305;PMS7003;50434;45.188;5.712;2022-08-21T08:48:45;2.75;2.75;1.75
54305;PMS7003;50434;45.188;5.712;2022-08-21T08:51:47;4.00;4.00;4.00
54305;PMS7003;50434;45.188;5.712;2022-08-21T08:54:21;3.25;3.25;3.00
54305;PMS7003;50434;45.188;5.712;2022-08-21T08:57:00;3.25;3.25;2.25
54305;PMS7003;50434;45.188;5.712;2022-08-21T08:59:31;2.50;2.50;2.25
54305;PMS7003;50434;45.188;5.712;2022-08-21T09:02:04;2.25;2.25;1.75
54305;PMS7003;50434;45.188;5.712;2022-08-21T09:04:30;2.75;2.75;1.75
54305;PMS7003;50434;45.188;5.712;2022-08-21T09:21:26;2.75;2.75;2.50
54305;PMS7003;50434;45.188;5.712;2022-08-21T09:29:27;1.40;1.40;1.20
54305;PMS7003;50434;45.188;5.712;2022-08-21T09:31:56;4.25;4.25;3.50
54305;PMS7003;50434;45.188;5.712;2022-08-21T09:34:26;2.67;2.67;2.67
54305;PMS7003;50434;45.188;5.712;2022-08-21T09:36:54;3.75;3.75;3.00
54305;PMS7003;50434;45.188;5.712;2022-08-21T09:39:27;3.20;3.20;2.20
54305;PMS7003;50434;45.188;5.712;2022-08-21T09:41:56;2.20;2.20;2.20
54305;PMS7003;50434;45.188;5.712;2022-08-21T09:44:30;4.50;4.50;4.00
54305;PMS7003;50434;45.188;5.712;2022-08-21T09:46:58;5.50;5.50;4.00
54305;PMS7003;50434;45.188;5.712;2022-08-21T09:49:27;3.33;3.33;3.00
54305;PMS7003;50434;45.188;5.712;2022-08-21T09:51:54;2.50;2.50;1.75
54305;PMS7003;50434;45.188;5.712;2022-08-21T09:54:21;2.60;2.60;2.00
54305;PMS7003;50434;45.188;5.712;2022-08-21T09:56:55;3.00;3.00;2.80
54305;PMS7003;50434;45.188;5.712;2022-08-21T09:59:40;1.80;1.80;1.20
54305;PMS7003;50434;45.188;5.712;2022-08-21T10:02:24;3.80;3.80;3.20
54305;PMS7003;50434;45.188;5.712;2022-08-21T10:04:54;2.80;2.80;2.80
54305;PMS7003;50434;45.188;5.712;2022-08-21T10:07:40;2.00;2.00;1.60
54305;PMS7003;50434;45.188;5.712;2022-08-21T10:10:13;2.75;2.75;2.50
54305;PMS7003;50434;45.188;5.712;2022-08-21T10:15:40;3.00;3.00;2.20
54305;PMS7003;50434;45.188;5.712;2022-08-21T10:21:07;2.80;2.80;2.40
54305;PMS7003;50434;45.188;5.712;2022-08-21T10:26:31;2.20;2.20;2.20
54305;PMS7003;50434;45.188;5.712;2022-08-21T10:39:52;2.80;2.80;2.80
54305;PMS7003;50434;45.188;5.712;2022-08-21T10:48:49;2.80;2.80;2.60
54305;PMS7003;50434;45.188;5.712;2022-08-21T10:55:12;3.00;3.00;2.20
54305;PMS7003;50434;45.188;5.712;2022-08-21T10:57:16;2.00;2.00;2.00
54305;PMS7003;50434;45.188;5.712;2022-08-21T11:00:05;2.60;2.60;2.20
54305;PMS7003;50434;45.188;5.712;2022-08-21T11:02:45;4.20;4.20;4.20
54305;PMS7003;50434;45.188;5.712;2022-08-21T11:05:20;2.80;2.80;2.00
54305;PMS7003;50434;45.188;5.712;2022-08-21T11:07:55;1.40;1.40;1.20
54305;PMS7003;50434;45.188;5.712;2022-08-21T11:10:31;2.00;2.00;2.00
54305;PMS7003;50434;45.188;5.712;2022-08-21T11:13:11;2.20;2.20;2.20
54305;PMS7003;50434;45.188;5.712;2022-08-21T11:15:47;1.20;1.20;1.20
54305;PMS7003;50434;45.188;5.712;2022-08-21T11:18:38;0.00;0.00;0.00
54305;PMS7003;50434;45.188;5.712;2022-08-21T11:26:47;2.00;2.00;1.80
54305;PMS7003;50434;45.188;5.712;2022-08-21T11:29:20;3.20;3.20;2.20
54305;PMS7003;50434;45.188;5.712;2022-08-21T11:34:47;1.60;1.60;1.00
54305;PMS7003;50434;45.188;5.712;2022-08-21T11:42:36;1.80;1.80;1.80
54305;PMS7003;50434;45.188;5.712;2022-08-21T11:45:14;1.20;1.20;0.80
54305;PMS7003;50434;45.188;5.712;2022-08-21T11:50:21;1.20;1.20;1.20
54305;PMS7003;50434;45.188;5.712;2022-08-21T11:55:29;2.00;2.00;2.00
54305;PMS7003;50434;45.188;5.712;2022-08-21T11:58:01;1.20;1.20;1.20
54305;PMS7003;50434;45.188;5.712;2022-08-21T12:00:56;1.60;1.60;1.00
54305;PMS7003;50434;45.188;5.712;2022-08-21T12:03:33;2.00;2.00;1.20
54305;PMS7003;50434;45.188;5.712;2022-08-21T12:06:05;2.20;2.20;1.40
54305;PMS7003;50434;45.188;5.712;2022-08-21T12:13:34;1.20;1.20;1.20
54305;PMS7003;50434;45.188;5.712;2022-08-21T12:16:10;0.20;0.20;0.20
54305;PMS7003;50434;45.188;5.712;2022-08-21T12:22:12;1.00;1.00;0.80
54305;PMS7003;50434;45.188;5.712;2022-08-21T12:24:39;0.20;0.20;0.20
54305;PMS7003;50434;45.188;5.712;2022-08-21T12:27:29;0.60;0.60;0.00
54305;PMS7003;50434;45.188;5.712;2022-08-21T12:30:06;1.00;1.00;1.00
54305;PMS7003;50434;45.188;5.712;2022-08-21T12:32:53;2.00;2.00;1.20
54305;PMS7003;50434;45.188;5.712;2022-08-21T12:35:21;1.80;1.80;1.20
54305;PMS7003;50434;45.188;5.712;2022-08-21T12:40:31;0.60;0.60;0.40
54305;PMS7003;50434;45.188;5.712;2022-08-21T12:43:30;1.20;1.20;0.60
54305;PMS7003;50434;45.188;5.712;2022-08-21T12:46:01;0.80;0.80;0.80
54305;PMS7003;50434;45.188;5.712;2022-08-21T12:51:12;1.20;1.20;0.80
54305;PMS7003;50434;45.188;5.712;2022-08-21T12:54:04;1.20;1.20;1.20
54305;PMS7003;50434;45.188;5.712;2022-08-21T12:59:36;1.60;1.60;1.20
54305;PMS7003;50434;45.188;5.712;2022-08-21T13:02:03;0.80;0.80;0.00
54305;PMS7003;50434;45.188;5.712;2022-08-21T13:04:37;0.60;0.60;0.20
54305;PMS7003;50434;45.188;5.712;2022-08-21T13:07:06;1.20;1.20;1.20
54305;PMS7003;50434;45.188;5.712;2022-08-21T13:09:36;1.20;1.20;1.20
54305;PMS7003;50434;45.188;5.712;2022-08-21T13:12:09;0.40;0.40;0.40
54305;PMS7003;50434;45.188;5.712;2022-08-21T13:14:36;2.25;2.25;2.00
54305;PMS7003;50434;45.188;5.712;2022-08-21T13:17:06;0.60;0.60;0.40
54305;PMS7003;50434;45.188;5.712;2022-08-21T13:19:33;1.60;1.60;0.80
54305;PMS7003;50434;45.188;5.712;2022-08-21T13:21:59;1.20;1.20;0.20
54305;PMS7003;50434;45.188;5.712;2022-08-21T13:24:30;1.00;1.00;1.00
54305;PMS7003;50434;45.188;5.712;2022-08-21T13:26:59;0.60;0.60;0.20
54305;PMS7003;50434;45.188;5.712;2022-08-21T13:29:29;2.00;2.00;1.00
54305;PMS7003;50434;45.188;5.712;2022-08-21T13:31:58;1.40;1.40;1.00
54305;PMS7003;50434;45.188;5.712;2022-08-21T13:34:31;0.40;0.40;0.40
54305;PMS7003;50434;45.188;5.712;2022-08-21T13:37:03;2.00;2.00;2.00
54305;PMS7003;50434;45.188;5.712;2022-08-21T13:39:32;1.00;1.00;0.20
54305;PMS7003;50434;45.188;5.712;2022-08-21T13:41:58;0.75;0.75;0.75
54305;PMS7003;50434;45.188;5.712;2022-08-21T13:44:39;0.40;0.40;0.20
54305;PMS7003;50434;45.188;5.712;2022-08-21T13:47:06;1.00;1.00;1.00
54305;PMS7003;50434;45.188;5.712;2022-08-21T13:49:36;0.00;0.00;0.00
54305;PMS7003;50434;45.188;5.712;2022-08-21T13:52:04;1.00;1.00;1.00
54305;PMS7003;50434;45.188;5.712;2022-08-21T13:54:40;0.60;0.60;0.60
54305;PMS7003;50434;45.188;5.712;2022-08-21T13:57:23;0.80;0.80;0.20
54305;PMS7003;50434;45.188;5.712;2022-08-21T14:00:15;0.00;0.00;0.00
54305;PMS7003;50434;45.188;5.712;2022-08-21T14:02:52;0.00;0.00;0.00
54305;PMS7003;50434;45.188;5.712;2022-08-21T14:05:30;0.20;0.20;0.00
54305;PMS7003;50434;45.188;5.712;2022-08-21T14:08:08;0.80;0.80;0.60
54305;PMS7003;50434;45.188;5.712;2022-08-21T14:10:58;0.20;0.20;0.20
54305;PMS7003;50434;45.188;5.712;2022-08-21T14:16:03;1.40;1.40;1.00
54305;PMS7003;50434;45.188;5.712;2022-08-21T14:18:49;0.40;0.40;0.20
54305;PMS7003;50434;45.188;5.712;2022-08-21T14:21:30;0.20;0.20;0.20
54305;PMS7003;50434;45.188;5.712;2022-08-21T14:24:11;0.40;0.40;0.40
54305;PMS7003;50434;45.188;5.712;2022-08-21T14:26:46;0.20;0.20;0.20
54305;PMS7003;50434;45.188;5.712;2022-08-21T14:29:15;0.20;0.20;0.20
54305;PMS7003;50434;45.188;5.712;2022-08-21T14:31:42;1.00;1.00;1.00
54305;PMS7003;50434;45.188;5.712;2022-08-21T14:34:14;1.00;1.00;1.00
54305;PMS7003;50434;45.188;5.712;2022-08-21T14:36:41;0.60;0.60;0.40
54305;PMS7003;50434;45.188;5.712;2022-08-21T14:39:07;1.00;1.00;0.50
54305;PMS7003;50434;45.188;5.712;2022-08-21T14:41:33;0.80;0.80;0.60
54305;PMS7003;50434;45.188;5.712;2022-08-21T14:43:59;2.00;2.00;1.00
54305;PMS7003;50434;45.188;5.712;2022-08-21T14:46:27;0.80;0.80;0.80
54305;PMS7003;50434;45.188;5.712;2022-08-21T14:48:55;1.20;1.20;0.60
54305;PMS7003;50434;45.188;5.712;2022-08-21T14:51:20;1.00;1.00;0.00
54305;PMS7003;50434;45.188;5.712;2022-08-21T14:53:46;1.25;1.25;1.25
54305;PMS7003;50434;45.188;5.712;2022-08-21T14:56:12;2.00;2.00;1.60
54305;PMS7003;50434;45.188;5.712;2022-08-21T14:58:42;1.00;1.00;0.40
54305;PMS7003;50434;45.188;5.712;2022-08-21T15:01:10;0.40;0.40;0.20
54305;PMS7003;50434;45.188;5.712;2022-08-21T15:03:38;1.20;1.20;0.80
54305;PMS7003;50434;45.188;5.712;2022-08-21T15:06:05;1.80;1.80;1.20
54305;PMS7003;50434;45.188;5.712;2022-08-21T15:08:33;0.40;0.40;0.40
54305;PMS7003;50434;45.188;5.712;2022-08-21T15:11:00;1.00;1.00;0.00
54305;PMS7003;50434;45.188;5.712;2022-08-21T15:13:27;1.00;1.00;1.00
54305;PMS7003;50434;45.188;5.712;2022-08-21T15:15:55;0.00;0.00;0.00
54305;PMS7003;50434;45.188;5.712;2022-08-21T15:18:21;1.00;1.00;0.40
54305;PMS7003;50434;45.188;5.712;2022-08-21T15:20:49;1.20;1.20;0.60
54305;PMS7003;50434;45.188;5.712;2022-08-21T15:23:15;1.50;1.50;1.25
54305;PMS7003;50434;45.188;5.712;2022-08-21T15:25:45;0.25;0.25;0.25
54305;PMS7003;50434;45.188;5.712;2022-08-21T15:28:12;1.20;1.20;1.20
54305;PMS7003;50434;45.188;5.712;2022-08-21T15:30:39;0.00;0.00;0.00
54305;PMS7003;50434;45.188;5.712;2022-08-21T15:33:07;1.20;1.20;0.80
54305;PMS7003;50434;45.188;5.712;2022-08-21T15:35:33;1.40;1.40;1.00
54305;PMS7003;50434;45.188;5.712;2022-08-21T15:37:59;0.00;0.00;0.00
54305;PMS7003;50434;45.188;5.712;2022-08-21T15:40:24;0.25;0.25;0.25
54305;PMS7003;50434;45.188;5.712;2022-08-21T15:42:52;0.00;0.00;0.00
54305;PMS7003;50434;45.188;5.712;2022-08-21T15:45:23;0.20;0.20;0.00
54305;PMS7003;50434;45.188;5.712;2022-08-21T15:47:49;1.00;1.00;1.00
54305;PMS7003;50434;45.188;5.712;2022-08-21T15:50:15;0.40;0.40;0.40
54305;PMS7003;50434;45.188;5.712;2022-08-21T15:52:41;1.25;1.25;0.25
54305;PMS7003;50434;45.188;5.712;2022-08-21T15:55:07;1.25;1.25;0.25
54305;PMS7003;50434;45.188;5.712;2022-08-21T15:57:33;1.20;1.20;0.60
54305;PMS7003;50434;45.188;5.712;2022-08-21T16:00:00;1.20;1.20;1.20
54305;PMS7003;50434;45.188;5.712;2022-08-21T16:02:38;0.20;0.20;0.20
54305;PMS7003;50434;45.188;5.712;2022-08-21T16:05:07;1.00;1.00;1.00
54305;PMS7003;50434;45.188;5.712;2022-08-21T16:07:35;1.00;1.00;0.00
54305;PMS7003;50434;45.188;5.712;2022-08-21T16:10:01;0.00;0.00;0.00
54305;PMS7003;50434;45.188;5.712;2022-08-21T16:12:29;0.20;0.20;0.20